5 day graph

You are here

Error message

  • Notice: Trying to access array offset on value of type int in DrupalRequestSanitizer::stripDangerousValues() (line 102 of /home/twolittl/public_html/cms/includes/request-sanitizer.inc).
  • Notice: Trying to access array offset on value of type int in DrupalRequestSanitizer::stripDangerousValues() (line 102 of /home/twolittl/public_html/cms/includes/request-sanitizer.inc).
  • Notice: Trying to access array offset on value of type int in DrupalRequestSanitizer::stripDangerousValues() (line 102 of /home/twolittl/public_html/cms/includes/request-sanitizer.inc).
  • Notice: Trying to access array offset on value of type int in DrupalRequestSanitizer::stripDangerousValues() (line 102 of /home/twolittl/public_html/cms/includes/request-sanitizer.inc).
  • Notice: Trying to access array offset on value of type int in DrupalRequestSanitizer::stripDangerousValues() (line 102 of /home/twolittl/public_html/cms/includes/request-sanitizer.inc).
  • Notice: Trying to access array offset on value of type int in DrupalRequestSanitizer::stripDangerousValues() (line 102 of /home/twolittl/public_html/cms/includes/request-sanitizer.inc).
  • Notice: Trying to access array offset on value of type int in DrupalRequestSanitizer::stripDangerousValues() (line 102 of /home/twolittl/public_html/cms/includes/request-sanitizer.inc).
  • Notice: Trying to access array offset on value of type int in DrupalRequestSanitizer::stripDangerousValues() (line 102 of /home/twolittl/public_html/cms/includes/request-sanitizer.inc).
  • Notice: Trying to access array offset on value of type int in DrupalRequestSanitizer::stripDangerousValues() (line 102 of /home/twolittl/public_html/cms/includes/request-sanitizer.inc).
  • Notice: Trying to access array offset on value of type int in DrupalRequestSanitizer::stripDangerousValues() (line 102 of /home/twolittl/public_html/cms/includes/request-sanitizer.inc).
  • Deprecated function: Function get_magic_quotes_gpc() is deprecated in phpMyEdit->get_cgi_var() (line 1773 of /home/twolittl/public_html/phpMyEdit.class.php).
  • Deprecated function: implode(): Passing glue string after array is deprecated. Swap the parameters in drupal_get_feeds() (line 394 of /home/twolittl/public_html/cms/includes/common.inc).

Hive Data

Page: 1 of 16645  Records: 998690

Row Date Time Hive Temp Hive Humidity Outside Temp Outside Humidity Bottom Board Temp Outside Wall Temp Electronics Temp Light Levels inHG Fan Heat Cover Notes
Clear Sorted By: Light Levels ascending, Hive Temp ascending, inHG descending, Outside Wall Temp ascending, Row descending
View 766557 Dec 31 2015 5:47:09am 40.1 52 29.48 55 27.95 29.3 42.8 0 29.74 0 0 0 NA
View 765241 Dec 30 2015 7:46:52am 40.1 55 26.06 87 24.8 26.6 41 0 29.6 0 0 0 NA
View 766671 Dec 31 2015 7:41:31am 40.28 49 29.66 53 27.95 29.75 39.2 0 29.76 0 0 0 NA
View 766655 Dec 31 2015 7:25:28am 40.28 49 29.66 54 27.95 29.75 39.2 0 29.75 0 0 0 NA
View 766593 Dec 31 2015 6:23:16am 40.28 52 29.66 54 27.95 29.3 41 0 29.74 0 0 0 NA
View 766590 Dec 31 2015 6:20:15am 40.28 53 29.66 54 27.95 29.3 41 0 29.74 0 0 0 NA
View 766560 Dec 31 2015 5:50:09am 40.28 53 29.48 55 27.95 29.3 42.8 0 29.74 0 0 0 NA
View 766559 Dec 31 2015 5:49:09am 40.28 53 29.66 55 28.4 29.3 42.8 0 29.74 0 0 0 NA
View 766558 Dec 31 2015 5:48:09am 40.28 53 29.66 55 28.4 29.3 42.8 0 29.74 0 0 0 NA
View 766556 Dec 31 2015 5:46:09am 40.28 52 29.66 55 27.95 29.3 42.8 0 29.74 0 0 0 NA
View 766555 Dec 31 2015 5:45:08am 40.28 53 29.66 55 27.95 29.3 42.8 0 29.74 0 0 0 NA
View 766554 Dec 31 2015 5:44:08am 40.28 51 29.66 55 27.95 29.3 42.8 0 29.74 0 0 0 NA
View 766553 Dec 31 2015 5:43:08am 40.28 47 29.48 55 28.4 29.3 42.8 0 29.74 0 0 0 NA
View 766509 Dec 31 2015 4:58:59am 40.28 53 29.66 55 28.4 29.3 41 0 29.74 0 0 0 NA
View 766611 Dec 31 2015 6:41:19am 40.28 51 29.84 54 27.95 29.75 41 0 29.74 0 0 0 NA
View 766511 Dec 31 2015 5:01:00am 40.28 51 29.66 55 28.4 29.75 42.8 0 29.74 0 0 0 NA
View 766508 Dec 31 2015 4:57:59am 40.28 52 29.66 56 28.4 29.75 41 0 29.74 0 0 0 NA
View 766503 Dec 31 2015 4:52:58am 40.28 48 29.84 55 28.4 29.75 41 0 29.74 0 0 0 NA
View 766512 Dec 31 2015 5:02:00am 40.28 52 29.66 55 28.4 29.3 41 0 29.73 0 0 0 NA
View 766510 Dec 31 2015 5:00:00am 40.28 50 29.66 55 28.4 29.3 41 0 29.73 0 0 0 NA
View 766507 Dec 31 2015 4:56:59am 40.28 51 29.84 56 28.4 29.75 41 0 29.73 0 0 0 NA
View 766506 Dec 31 2015 4:55:59am 40.28 51 29.84 55 28.4 29.75 41 0 29.73 0 0 0 NA
View 766505 Dec 31 2015 4:54:59am 40.28 51 29.84 56 28.4 29.75 41 0 29.73 0 0 0 NA
View 766504 Dec 31 2015 4:53:58am 40.28 48 29.84 55 28.4 29.75 41 0 29.73 0 0 0 NA
View 766502 Dec 31 2015 4:51:58am 40.28 52 29.84 55 28.4 29.75 41 0 29.73 0 0 0 NA
View 765238 Dec 30 2015 7:43:51am 40.28 53 26.24 87 24.8 26.6 41 0 29.6 0 0 0 NA
View 765234 Dec 30 2015 7:39:51am 40.28 53 26.06 86 24.8 26.6 39.2 0 29.6 0 0 0 NA
View 765233 Dec 30 2015 7:38:50am 40.28 53 26.06 86 24.8 26.6 39.2 0 29.6 0 0 0 NA
View 765232 Dec 30 2015 7:37:50am 40.28 53 26.06 86 24.8 26.6 39.2 0 29.6 0 0 0 NA
View 765200 Dec 30 2015 7:05:44am 40.28 54 25.52 88 24.8 26.6 41 0 29.59 0 0 0 NA
View 765199 Dec 30 2015 7:04:44am 40.28 53 25.7 87 25.25 26.6 41 0 29.59 0 0 0 NA
View 766672 Dec 31 2015 7:42:31am 40.46 51 29.48 53 27.95 29.75 39.2 0 29.76 0 0 0 NA
View 766668 Dec 31 2015 7:38:30am 40.46 53 29.66 53 27.95 29.75 39.2 0 29.76 0 0 0 NA
View 766664 Dec 31 2015 7:34:29am 40.46 51 29.48 53 27.95 29.75 39.2 0 29.76 0 0 0 NA
View 766663 Dec 31 2015 7:33:29am 40.46 48 29.66 53 27.95 29.75 39.2 0 29.76 0 0 0 NA
View 766589 Dec 31 2015 6:19:15am 40.46 51 29.66 54 27.95 29.3 41 0 29.75 0 0 0 NA
View 766587 Dec 31 2015 6:17:14am 40.46 51 29.66 54 27.95 29.3 41 0 29.75 0 0 0 NA
View 766583 Dec 31 2015 6:13:14am 40.46 49 29.66 55 27.95 29.3 41 0 29.75 0 0 0 NA
View 766569 Dec 31 2015 5:59:11am 40.46 54 29.66 55 27.95 29.3 41 0 29.75 0 0 0 NA
View 766566 Dec 31 2015 5:56:10am 40.46 52 29.66 55 27.95 29.3 42.8 0 29.75 0 0 0 NA
View 766565 Dec 31 2015 5:55:11am 40.46 51 29.48 55 27.95 29.3 42.8 0 29.75 0 0 0 NA
View 766564 Dec 31 2015 5:54:10am 40.46 50 29.48 55 27.95 29.3 42.8 0 29.75 0 0 0 NA
View 766563 Dec 31 2015 5:53:10am 40.46 53 29.48 55 27.95 29.3 42.8 0 29.75 0 0 0 NA
View 766550 Dec 31 2015 5:40:07am 40.46 53 29.66 55 27.95 29.3 41 0 29.75 0 0 0 NA
View 766666 Dec 31 2015 7:36:30am 40.46 52 29.48 53 27.95 29.75 39.2 0 29.75 0 0 0 NA
View 766665 Dec 31 2015 7:35:30am 40.46 50 29.48 53 27.95 29.75 39.2 0 29.75 0 0 0 NA
View 766662 Dec 31 2015 7:32:29am 40.46 51 29.48 53 27.95 29.75 39.2 0 29.75 0 0 0 NA
View 766661 Dec 31 2015 7:31:29am 40.46 50 29.48 53 27.95 29.75 39.2 0 29.75 0 0 0 NA
View 766660 Dec 31 2015 7:30:29am 40.46 52 29.66 54 27.95 29.75 39.2 0 29.75 0 0 0 NA
View 766659 Dec 31 2015 7:29:29am 40.46 51 29.48 54 27.95 29.75 39.2 0 29.75 0 0 0 NA
View 766658 Dec 31 2015 7:28:28am 40.46 52 29.66 54 27.95 29.75 39.2 0 29.75 0 0 0 NA
View 766657 Dec 31 2015 7:27:28am 40.46 50 29.66 54 27.95 29.75 39.2 0 29.75 0 0 0 NA
View 766656 Dec 31 2015 7:26:28am 40.46 51 29.66 54 27.95 29.75 39.2 0 29.75 0 0 0 NA
View 766654 Dec 31 2015 7:24:28am 40.46 50 29.66 53 27.95 29.75 39.2 0 29.75 0 0 0 NA
View 766653 Dec 31 2015 7:23:27am 40.46 51 29.66 54 27.95 29.75 39.2 0 29.75 0 0 0 NA
View 766616 Dec 31 2015 6:46:20am 40.46 55 29.84 54 27.95 29.75 41 0 29.75 0 0 0 NA
View 766646 Dec 31 2015 7:16:26am 40.46 51 29.66 54 27.95 29.3 41 0 29.74 0 0 0 NA
View 766606 Dec 31 2015 6:36:18am 40.46 51 29.84 54 27.95 29.3 41 0 29.74 0 0 0 NA
View 766603 Dec 31 2015 6:33:18am 40.46 52 29.66 54 27.95 29.3 41 0 29.74 0 0 0 NA
View 766602 Dec 31 2015 6:32:18am 40.46 52 29.84 54 27.95 29.3 41 0 29.74 0 0 0 NA